createdAt,value
2023-03-18T00:01:40.982Z,13.07
2023-03-18T00:06:38.541Z,17.35
2023-03-18T00:11:32.689Z,13.60
2023-03-18T00:16:27.939Z,14.10
2023-03-18T00:21:20.816Z,15.13
2023-03-18T00:26:13.927Z,15.27
2023-03-18T00:31:11.273Z,13.88
2023-03-18T00:36:06.506Z,16.42
2023-03-18T00:41:11.480Z,14.85
2023-03-18T00:46:05.788Z,14.02
2023-03-18T00:50:59.575Z,13.75
2023-03-18T00:55:53.949Z,11.25
2023-03-18T01:00:47.373Z,12.07
2023-03-18T01:05:41.197Z,10.70
2023-03-18T01:10:35.524Z,9.70
2023-03-18T01:15:29.136Z,9.18
2023-03-18T01:20:21.606Z,10.77
2023-03-18T01:25:18.693Z,10.27
2023-03-18T01:30:16.660Z,11.35
2023-03-18T01:35:09.970Z,11.35
2023-03-18T01:40:02.833Z,10.50
2023-03-18T01:45:32.622Z,10.07
2023-03-18T01:50:49.078Z,10.13
2023-03-18T01:55:42.254Z,9.95
2023-03-18T02:00:40.618Z,10.57
2023-03-18T02:05:33.161Z,10.93
2023-03-18T02:10:29.869Z,11.05
2023-03-18T02:15:28.007Z,10.98
2023-03-18T02:20:37.997Z,10.75
2023-03-18T02:25:50.285Z,9.90
2023-03-18T02:30:49.973Z,9.60
2023-03-18T02:35:46.505Z,9.93
2023-03-18T02:40:43.469Z,9.30
2023-03-18T02:45:59.145Z,9.70
2023-03-18T02:50:52.490Z,9.38
2023-03-18T02:55:44.890Z,9.60
2023-03-18T03:00:38.856Z,9.45
2023-03-18T03:05:32.894Z,9.45
2023-03-18T03:10:26.360Z,9.18
2023-03-18T03:15:21.387Z,9.27
2023-03-18T03:20:20.539Z,10.60
2023-03-18T03:25:14.896Z,9.50
2023-03-18T03:30:12.638Z,8.23
2023-03-18T03:35:08.349Z,9.95
2023-03-18T03:40:03.018Z,8.80
2023-03-18T03:44:56.323Z,10.55
2023-03-18T03:49:50.026Z,9.57
2023-03-18T03:54:42.998Z,8.98
2023-03-18T03:59:36.654Z,10.13
2023-03-18T04:04:46.741Z,9.02
2023-03-18T04:09:56.528Z,9.55
2023-03-18T04:14:51.411Z,9.30
2023-03-18T04:19:48.964Z,11.18
2023-03-18T04:24:43.382Z,8.77
2023-03-18T04:29:36.677Z,10.77
2023-03-18T04:34:30.922Z,11.90
2023-03-18T04:39:24.647Z,12.52
2023-03-18T04:44:19.800Z,10.27
2023-03-18T04:49:17.222Z,11.18
2023-03-18T04:54:10.320Z,9.30
2023-03-18T04:59:04.615Z,10.35
2023-03-18T05:03:59.911Z,10.07
2023-03-18T05:09:05.352Z,11.25
2023-03-18T05:14:00.201Z,10.77
2023-03-18T05:18:54.088Z,11.40
2023-03-18T05:23:47.721Z,13.10
2023-03-18T05:28:41.519Z,11.73
2023-03-18T05:33:47.624Z,12.23
2023-03-18T05:38:41.560Z,10.15
2023-03-18T05:43:35.628Z,10.60
2023-03-18T05:48:29.032Z,9.38
2023-03-18T05:53:28.515Z,11.63
2023-03-18T05:58:31.488Z,10.73
2023-03-18T06:03:39.498Z,13.55
2023-03-18T06:08:38.097Z,14.02
2023-03-18T06:13:31.290Z,14.52
2023-03-18T06:18:25.317Z,12.35
2023-03-18T06:23:19.143Z,11.30
2023-03-18T06:28:13.589Z,11.43
2023-03-18T06:33:07.048Z,11.68
2023-03-18T06:37:59.435Z,12.52
2023-03-18T06:42:53.359Z,13.38
2023-03-18T06:48:01.780Z,13.32
2023-03-18T06:52:58.128Z,13.57
2023-03-18T06:57:57.166Z,12.20
2023-03-18T07:02:57.113Z,12.93
2023-03-18T07:07:52.476Z,12.40
2023-03-18T07:12:45.958Z,14.48
2023-03-18T07:17:39.324Z,14.90
2023-03-18T07:22:32.837Z,15.45
2023-03-18T07:27:26.129Z,13.82
2023-03-18T07:32:20.423Z,13.50
2023-03-18T07:37:13.446Z,13.68
2023-03-18T07:42:07.978Z,15.85
2023-03-18T07:47:02.366Z,15.27
2023-03-18T07:51:56.007Z,14.93
2023-03-18T07:56:49.529Z,15.18
2023-03-18T08:01:43.240Z,14.35
2023-03-18T08:06:38.400Z,14.10
2023-03-18T08:11:33.851Z,12.40
2023-03-18T08:16:26.620Z,12.65
2023-03-18T08:21:20.054Z,13.02
2023-03-18T08:26:13.688Z,12.40
2023-03-18T08:31:07.018Z,11.00
2023-03-18T08:36:00.101Z,11.63
2023-03-18T08:40:53.881Z,13.32
2023-03-18T08:45:48.037Z,13.40
2023-03-18T08:50:41.701Z,12.55
2023-03-18T08:55:37.340Z,11.07
2023-03-18T09:00:31.401Z,11.00
2023-03-18T09:05:25.927Z,11.95
2023-03-18T09:10:20.238Z,12.80
2023-03-18T09:15:16.883Z,12.68
2023-03-18T09:20:13.016Z,11.95
2023-03-18T09:25:07.697Z,9.95
2023-03-18T09:30:00.967Z,9.77
2023-03-18T09:34:54.717Z,8.82
2023-03-18T09:39:51.596Z,10.63
2023-03-18T09:44:45.570Z,8.98
2023-03-18T09:49:44.784Z,8.88
2023-03-18T09:55:00.505Z,8.07
2023-03-18T09:59:56.822Z,8.25
2023-03-18T10:04:56.573Z,7.60
2023-03-18T10:09:59.501Z,8.80
2023-03-18T10:15:09.141Z,7.78
2023-03-18T10:20:05.747Z,7.88
2023-03-18T10:25:07.890Z,7.38
2023-03-18T10:30:05.005Z,8.10
2023-03-18T10:35:19.046Z,7.95
2023-03-18T10:40:17.558Z,7.07
2023-03-18T10:45:24.678Z,6.40
2023-03-18T10:50:25.861Z,7.30
2023-03-18T10:55:22.455Z,7.10
2023-03-18T11:00:35.985Z,8.23
2023-03-18T11:05:35.879Z,7.13
2023-03-18T11:10:34.134Z,6.57
2023-03-18T11:15:28.205Z,5.32
2023-03-18T11:20:26.279Z,6.13
2023-03-18T11:25:26.663Z,7.13
2023-03-18T11:30:36.589Z,6.63
2023-03-18T11:35:49.525Z,8.48
2023-03-18T11:40:42.308Z,7.82
2023-03-18T11:45:39.662Z,8.15
2023-03-18T11:50:56.299Z,7.72
2023-03-18T11:55:51.922Z,8.27
2023-03-18T12:01:03.338Z,9.10
2023-03-18T12:05:58.980Z,9.43
2023-03-18T12:11:06.925Z,10.02
2023-03-18T12:16:19.026Z,11.00
2023-03-18T12:21:23.209Z,9.85
2023-03-18T12:26:26.890Z,10.73
2023-03-18T12:31:25.182Z,10.38
2023-03-18T12:36:44.648Z,9.75
2023-03-18T12:41:41.665Z,10.40
2023-03-18T12:47:07.224Z,12.10
2023-03-18T12:52:09.938Z,12.32
2023-03-18T12:57:08.648Z,10.23
2023-03-18T13:02:13.379Z,12.10
2023-03-18T13:07:37.576Z,12.18
2023-03-18T13:12:38.127Z,11.73
2023-03-18T13:17:39.525Z,12.82
2023-03-18T13:22:46.357Z,11.75
2023-03-18T13:27:54.690Z,10.90
2023-03-18T13:38:09.873Z,11.15
2023-03-18T13:43:03.850Z,10.68
2023-03-18T13:48:32.151Z,12.20
2023-03-18T13:53:30.982Z,12.40
2023-03-18T13:58:27.762Z,12.80
2023-03-18T14:03:33.751Z,11.63
2023-03-18T14:08:38.802Z,11.68
2023-03-18T14:13:34.986Z,12.15
2023-03-18T14:18:29.250Z,11.65
2023-03-18T14:23:28.301Z,11.98
2023-03-18T14:28:43.057Z,11.85
2023-03-18T14:33:52.428Z,12.27
2023-03-18T14:39:02.696Z,12.18
2023-03-18T14:43:59.148Z,11.73
2023-03-18T14:48:54.753Z,11.50
2023-03-18T14:54:11.389Z,11.07
2023-03-18T14:59:04.935Z,11.15
2023-03-18T15:03:58.293Z,13.18
2023-03-18T15:09:02.130Z,10.52
2023-03-18T15:13:58.798Z,11.35
2023-03-18T15:18:55.088Z,12.10
2023-03-18T15:23:48.855Z,10.80
2023-03-18T15:28:42.418Z,10.32
2023-03-18T15:33:38.045Z,10.52
2023-03-18T15:38:32.666Z,10.13
2023-03-18T15:43:40.041Z,11.25
2023-03-18T15:48:43.059Z,11.02
2023-03-18T15:53:43.202Z,10.82
2023-03-18T15:58:38.453Z,10.95
2023-03-18T16:03:34.859Z,11.52
2023-03-18T16:08:28.378Z,10.52
2023-03-18T16:13:24.878Z,12.45
2023-03-18T16:18:18.801Z,11.00
2023-03-18T16:23:13.119Z,11.70
2023-03-18T16:28:07.877Z,11.15
2023-03-18T16:33:01.440Z,11.15
2023-03-18T16:37:54.978Z,9.98
2023-03-18T16:42:48.633Z,10.15
2023-03-18T16:47:42.059Z,13.38
2023-03-18T16:52:35.712Z,9.98
2023-03-18T16:57:29.380Z,8.63
2023-03-18T17:02:34.430Z,8.13
2023-03-18T17:07:30.195Z,8.80
2023-03-18T17:12:24.945Z,8.77
2023-03-18T17:17:31.125Z,8.18
2023-03-18T17:22:27.034Z,9.05
2023-03-18T17:27:28.187Z,9.23
2023-03-18T17:32:22.520Z,7.53
2023-03-18T17:37:16.202Z,9.40
2023-03-18T17:42:25.672Z,8.30
2023-03-18T17:47:20.197Z,8.75
2023-03-18T17:52:15.509Z,9.77
2023-03-18T17:57:14.748Z,9.57
2023-03-18T18:02:18.665Z,9.50
2023-03-18T18:07:34.683Z,9.70
2023-03-18T18:12:29.404Z,12.25
2023-03-18T18:17:22.218Z,15.60
2023-03-18T18:22:21.153Z,21.83
2023-03-18T18:27:15.749Z,17.33
2023-03-18T18:32:10.021Z,11.63
2023-03-18T18:37:02.928Z,9.80
2023-03-18T18:41:56.136Z,13.40
2023-03-18T18:46:49.844Z,12.82
2023-03-18T18:51:43.414Z,14.75
2023-03-18T18:56:37.290Z,12.52
2023-03-18T19:01:31.383Z,11.98
2023-03-18T19:06:30.069Z,13.70
2023-03-18T19:11:24.957Z,14.70
2023-03-18T19:16:41.289Z,14.35
2023-03-18T19:21:35.113Z,13.80
2023-03-18T19:26:28.521Z,15.90
2023-03-18T19:31:27.405Z,14.30
2023-03-18T19:36:26.978Z,15.88
2023-03-18T19:41:21.762Z,16.20
2023-03-18T19:46:20.944Z,14.80
2023-03-18T19:51:15.950Z,16.38
2023-03-18T19:56:25.476Z,18.42
2023-03-18T20:01:21.098Z,28.08
2023-03-18T20:06:14.676Z,25.00
2023-03-18T20:11:13.136Z,24.08
2023-03-18T20:16:09.608Z,21.15
2023-03-18T20:21:04.120Z,22.17
2023-03-18T20:25:57.286Z,20.00
2023-03-18T20:30:53.285Z,19.05
2023-03-18T20:35:48.383Z,18.58
2023-03-18T20:40:43.307Z,19.17
2023-03-18T20:45:37.358Z,17.95
2023-03-18T20:50:31.781Z,16.83
2023-03-18T20:55:26.791Z,17.27
2023-03-18T21:00:24.103Z,17.10
2023-03-18T21:05:17.798Z,16.80
2023-03-18T21:10:23.706Z,17.48
2023-03-18T21:15:18.541Z,16.67
2023-03-18T21:20:22.629Z,15.95
2023-03-18T21:25:24.495Z,17.52
2023-03-18T21:30:19.973Z,17.13
2023-03-18T21:35:25.066Z,18.10
2023-03-18T21:40:25.301Z,18.23
2023-03-18T21:45:21.680Z,19.70
2023-03-18T21:50:23.306Z,20.42
2023-03-18T21:55:15.996Z,18.05
2023-03-18T22:00:21.131Z,18.70
2023-03-18T22:05:23.786Z,20.42
2023-03-18T22:10:20.614Z,20.20
2023-03-18T22:15:58.230Z,18.70
2023-03-18T22:20:52.814Z,19.88
2023-03-18T22:25:48.317Z,20.52
2023-03-18T22:30:42.925Z,20.40
2023-03-18T22:35:35.873Z,18.88
2023-03-18T22:40:31.110Z,17.88
2023-03-18T22:45:30.075Z,16.27
2023-03-18T22:50:23.294Z,18.02
2023-03-18T22:55:22.142Z,17.33
2023-03-18T23:00:26.015Z,17.83
2023-03-18T23:05:20.726Z,18.20
2023-03-18T23:10:14.855Z,17.45
2023-03-18T23:15:09.619Z,16.73
2023-03-18T23:20:03.595Z,17.63
2023-03-18T23:24:56.465Z,16.85
2023-03-18T23:29:49.537Z,18.55
2023-03-18T23:34:43.044Z,17.95
2023-03-18T23:39:39.794Z,18.75
2023-03-18T23:44:33.236Z,17.35
2023-03-18T23:49:29.738Z,17.92
2023-03-18T23:54:23.493Z,18.90
2023-03-18T23:59:17.605Z,17.73
